MTF weather

Mata Larga Airport
El Carmen, Campeche, Mexico

Public forecast

Using degrees Celsius for public forecast. Weather courtesy of forecast.io.

METAR (pilot weather report)

Report is more than 2 hours old.

Closest report is Ciudad del Carmen International Airport, 28.0 nm (51.9 km) WNW. Retrieved 2019/06/27 00:43 UTC (5 hours ago):

MMCE 270043Z 14014KT 2SM -RA BKN010CB OVC070 25/23 A2997 RMK 8/37/ RAB35

TAF (pilot weather forecast)

Closest forecast is Ciudad del Carmen International Airport, 28.0 nm (51.9 km) WNW. Retrieved 2019/06/27 00:09 UTC (6 hours ago):

TAF COR MMCE 270104Z 2700/2718 12012KT P6SM SCT030 FM270000 03010KT P6SM SCT020CB BKN300 TEMPO 2701/2705 2SM TSRA BKN010CB FM270600 10012KT P6SM SCT015 BKN090 BKN260